Pagrindinis puslapis
METAR-TAF:

METAR-TAF

Oro uostai :

Al Wajh, Saudo Arabija

platuma: 26-12N, ilguma: 036-28E, Aukštis: 20 m

Dabartinis oras

Ataskaita buvo paskelbta 58 minutes, ne 00:00 UTC
Vėjas 3 kt iš Šiaurės Vakarų
Temperatūra 25°C
Drėgmė 69%
Slėgis 1006 hPa
Matomumas 10 km arba daugiau
nėra debesų žemiau 1500 m ir nėra kamuolinių lietaus debesų

METAR: OEWJ 240000Z 32003KT CAVOK 25/19 Q1006 NOSIG

Laikas: 03:58 (00:58 UTC)

Prognozė

Ataskaita buvo paskelbta 1 valandą ir 58 minutes, ne 23:00 UTC
Prognozė galioja nuo 24 metu 00 UTC su 25 metu 06 UTC
Vėjas 7 kt iš Šiaurės
Matomumas 10 km arba daugiau
nėra debesų žemiau 1500 m ir nėra kamuolinių lietaus debesų
Tapsmas
nuo 24 metu 06 UTC su 24 metu 08 UTC
Vėjas 15 kt iš Šiaurės Vakarų
Tapsmas
nuo 24 metu 18 UTC su 24 metu 20 UTC
Vėjas 6 kt iš Šiaurės

TAF: OEWJ 232300Z 2400/2506 01007KT CAVOK BECMG 2406/2408 32015KT BECMG 2418/2420 01006KT

Orai ataskaitas ir orų prognozės (METAR, TAF).

turimą stotys yra geltonos ir raudonos taškus žemėlapyje.

Perkelti pele per norėdami pamatyti stoties vardą.

Tada spustelėkite, norėdami matyti oro stebėjimo ir prognozės.

Norėdami pakeisti žemėlapį: spustelėkite ant žalios mygtukų su juodo kryžiaus žemyn,; žalią mygtuką su brūkšneliu, jei norite nutolinti; arba žalių rodyklių gretimoms žemėlapius.


METAR-TAF: